Weather at Detroit Metropolitan Wayne County Airport

Public forecast

Using degrees Fahrenheit for public forecast. Weather courtesy of forecast.io.

Current aviation weather report (METAR) for Detroit Metropolitan Wayne County Airport

Retrieved 2022/05/19 08:38 UTC (20 minutes ago):

KDTW 190838Z 26007KT 2SM BR OVC003 14/14 A2967 RMK AO2 T01440144 PNO

Aviation forecast (TAF) for Detroit Metropolitan Wayne County Airport

Retrieved 2022/05/19 06:22 UTC (3 hours ago):

TAF KDTW 190520Z 1906/2012 11005KT 1SM -DZ BR OVC003 FM190900 17004KT 5SM BR OVC006 FM191100 28010KT P6SM OVC014 FM191400 25011KT P6SM SCT030 BKN100 FM191700 22012KT P6SM SCT045 BKN060 FM200100 16005KT P6SM BKN250